sensor_id;sensor_type;location;lat;lon;timestamp;P1;durP1;ratioP1;P2;durP2;ratioP2
71366;SDS011;60030;52.274;8.040;2023-02-18T00:01:18;8.17;;;2.60;;
71366;SDS011;60030;52.274;8.040;2023-02-18T00:03:46;8.57;;;2.30;;
71366;SDS011;60030;52.274;8.040;2023-02-18T00:06:15;8.30;;;2.50;;
71366;SDS011;60030;52.274;8.040;2023-02-18T00:08:44;8.93;;;2.40;;
71366;SDS011;60030;52.274;8.040;2023-02-18T00:11:13;9.60;;;2.83;;
71366;SDS011;60030;52.274;8.040;2023-02-18T00:13:43;11.70;;;3.27;;
71366;SDS011;60030;52.274;8.040;2023-02-18T00:16:14;10.73;;;3.03;;
71366;SDS011;60030;52.274;8.040;2023-02-18T00:18:41;9.73;;;3.53;;
71366;SDS011;60030;52.274;8.040;2023-02-18T00:21:08;13.27;;;3.70;;
71366;SDS011;60030;52.274;8.040;2023-02-18T00:23:35;10.37;;;3.30;;
71366;SDS011;60030;52.274;8.040;2023-02-18T00:26:03;11.27;;;3.57;;
71366;SDS011;60030;52.274;8.040;2023-02-18T00:28:32;15.63;;;3.60;;
71366;SDS011;60030;52.274;8.040;2023-02-18T00:31:05;7.67;;;3.73;;
71366;SDS011;60030;52.274;8.040;2023-02-18T00:33:33;11.23;;;3.70;;
71366;SDS011;60030;52.274;8.040;2023-02-18T00:36:01;12.43;;;5.10;;
71366;SDS011;60030;52.274;8.040;2023-02-18T00:38:29;12.90;;;3.87;;
71366;SDS011;60030;52.274;8.040;2023-02-18T00:40:56;11.83;;;4.67;;
71366;SDS011;60030;52.274;8.040;2023-02-18T00:43:24;12.33;;;4.17;;
71366;SDS011;60030;52.274;8.040;2023-02-18T00:45:51;13.13;;;4.50;;
71366;SDS011;60030;52.274;8.040;2023-02-18T00:48:20;10.17;;;4.07;;
71366;SDS011;60030;52.274;8.040;2023-02-18T00:50:47;9.23;;;4.63;;
71366;SDS011;60030;52.274;8.040;2023-02-18T00:53:14;11.63;;;5.77;;
71366;SDS011;60030;52.274;8.040;2023-02-18T00:55:42;12.47;;;5.30;;
71366;SDS011;60030;52.274;8.040;2023-02-18T00:58:12;12.47;;;6.33;;
71366;SDS011;60030;52.274;8.040;2023-02-18T01:00:40;58.50;;;36.57;;
71366;SDS011;60030;52.274;8.040;2023-02-18T01:03:08;20.80;;;11.63;;
71366;SDS011;60030;52.274;8.040;2023-02-18T01:05:37;19.73;;;10.20;;
71366;SDS011;60030;52.274;8.040;2023-02-18T01:08:05;18.20;;;9.90;;
71366;SDS011;60030;52.274;8.040;2023-02-18T01:10:33;27.17;;;15.07;;
71366;SDS011;60030;52.274;8.040;2023-02-18T01:13:03;32.97;;;19.50;;
71366;SDS011;60030;52.274;8.040;2023-02-18T01:15:30;35.43;;;20.23;;
71366;SDS011;60030;52.274;8.040;2023-02-18T01:17:58;22.07;;;12.83;;
71366;SDS011;60030;52.274;8.040;2023-02-18T01:20:25;26.50;;;13.63;;
71366;SDS011;60030;52.274;8.040;2023-02-18T01:22:53;21.47;;;12.57;;
71366;SDS011;60030;52.274;8.040;2023-02-18T01:25:20;20.80;;;12.77;;
71366;SDS011;60030;52.274;8.040;2023-02-18T01:27:48;26.77;;;14.70;;
71366;SDS011;60030;52.274;8.040;2023-02-18T01:30:15;20.53;;;13.07;;
71366;SDS011;60030;52.274;8.040;2023-02-18T01:32:43;22.87;;;14.23;;
71366;SDS011;60030;52.274;8.040;2023-02-18T01:35:11;23.33;;;14.23;;
71366;SDS011;60030;52.274;8.040;2023-02-18T01:37:39;26.60;;;15.77;;
71366;SDS011;60030;52.274;8.040;2023-02-18T01:40:10;26.70;;;15.30;;
71366;SDS011;60030;52.274;8.040;2023-02-18T01:42:38;25.83;;;15.07;;
71366;SDS011;60030;52.274;8.040;2023-02-18T01:48:16;29.37;;;15.23;;
71366;SDS011;60030;52.274;8.040;2023-02-18T01:50:47;27.07;;;15.93;;
71366;SDS011;60030;52.274;8.040;2023-02-18T01:53:17;31.20;;;16.83;;
71366;SDS011;60030;52.274;8.040;2023-02-18T01:55:51;21.73;;;16.07;;
71366;SDS011;60030;52.274;8.040;2023-02-18T01:58:19;27.20;;;16.47;;
71366;SDS011;60030;52.274;8.040;2023-02-18T02:00:46;32.30;;;16.67;;
71366;SDS011;60030;52.274;8.040;2023-02-18T02:03:13;29.13;;;17.27;;
71366;SDS011;60030;52.274;8.040;2023-02-18T02:05:42;28.67;;;17.50;;
71366;SDS011;60030;52.274;8.040;2023-02-18T02:08:13;29.57;;;17.23;;
71366;SDS011;60030;52.274;8.040;2023-02-18T02:10:45;30.13;;;18.17;;
71366;SDS011;60030;52.274;8.040;2023-02-18T02:13:30;29.90;;;17.70;;
71366;SDS011;60030;52.274;8.040;2023-02-18T02:16:14;29.37;;;16.93;;
71366;SDS011;60030;52.274;8.040;2023-02-18T02:18:55;32.07;;;17.10;;
71366;SDS011;60030;52.274;8.040;2023-02-18T02:21:42;36.50;;;17.83;;
71366;SDS011;60030;52.274;8.040;2023-02-18T02:24:36;31.37;;;17.33;;
71366;SDS011;60030;52.274;8.040;2023-02-18T02:27:31;31.27;;;17.77;;
71366;SDS011;60030;52.274;8.040;2023-02-18T02:30:19;34.30;;;18.80;;
71366;SDS011;60030;52.274;8.040;2023-02-18T02:33:03;30.80;;;17.77;;
71366;SDS011;60030;52.274;8.040;2023-02-18T02:35:42;30.40;;;18.23;;
71366;SDS011;60030;52.274;8.040;2023-02-18T02:38:14;34.97;;;18.80;;
71366;SDS011;60030;52.274;8.040;2023-02-18T02:40:48;32.57;;;18.53;;
71366;SDS011;60030;52.274;8.040;2023-02-18T02:43:25;31.53;;;17.20;;
71366;SDS011;60030;52.274;8.040;2023-02-18T02:46:01;28.53;;;18.20;;
71366;SDS011;60030;52.274;8.040;2023-02-18T02:48:34;35.80;;;19.03;;
71366;SDS011;60030;52.274;8.040;2023-02-18T02:51:10;33.47;;;18.63;;
71366;SDS011;60030;52.274;8.040;2023-02-18T02:53:43;37.77;;;19.23;;
71366;SDS011;60030;52.274;8.040;2023-02-18T02:56:15;35.03;;;18.57;;
71366;SDS011;60030;52.274;8.040;2023-02-18T02:58:44;38.10;;;19.97;;
71366;SDS011;60030;52.274;8.040;2023-02-18T03:01:22;32.73;;;18.87;;
71366;SDS011;60030;52.274;8.040;2023-02-18T03:04:03;34.63;;;18.40;;
71366;SDS011;60030;52.274;8.040;2023-02-18T03:07:01;38.07;;;19.00;;
71366;SDS011;60030;52.274;8.040;2023-02-18T03:09:56;35.43;;;18.43;;
71366;SDS011;60030;52.274;8.040;2023-02-18T03:12:49;36.70;;;18.80;;
71366;SDS011;60030;52.274;8.040;2023-02-18T03:15:22;33.33;;;18.63;;
71366;SDS011;60030;52.274;8.040;2023-02-18T03:17:54;31.70;;;19.07;;
71366;SDS011;60030;52.274;8.040;2023-02-18T03:20:25;38.40;;;20.53;;
71366;SDS011;60030;52.274;8.040;2023-02-18T03:22:58;33.17;;;19.80;;
71366;SDS011;60030;52.274;8.040;2023-02-18T03:25:26;36.80;;;19.37;;
71366;SDS011;60030;52.274;8.040;2023-02-18T03:27:56;31.73;;;18.73;;
71366;SDS011;60030;52.274;8.040;2023-02-18T03:30:28;34.63;;;18.60;;
71366;SDS011;60030;52.274;8.040;2023-02-18T03:32:59;34.37;;;18.93;;
71366;SDS011;60030;52.274;8.040;2023-02-18T03:35:30;36.80;;;19.93;;
71366;SDS011;60030;52.274;8.040;2023-02-18T03:38:02;37.87;;;19.30;;
71366;SDS011;60030;52.274;8.040;2023-02-18T03:40:35;39.10;;;19.23;;
71366;SDS011;60030;52.274;8.040;2023-02-18T03:43:02;33.77;;;19.53;;
71366;SDS011;60030;52.274;8.040;2023-02-18T03:45:30;32.80;;;19.13;;
71366;SDS011;60030;52.274;8.040;2023-02-18T03:47:57;35.50;;;18.97;;
71366;SDS011;60030;52.274;8.040;2023-02-18T03:50:24;30.17;;;18.67;;
71366;SDS011;60030;52.274;8.040;2023-02-18T03:52:51;39.10;;;18.50;;
71366;SDS011;60030;52.274;8.040;2023-02-18T03:55:20;36.93;;;19.80;;
71366;SDS011;60030;52.274;8.040;2023-02-18T03:57:48;39.20;;;19.90;;
71366;SDS011;60030;52.274;8.040;2023-02-18T04:00:15;39.37;;;19.40;;
71366;SDS011;60030;52.274;8.040;2023-02-18T04:02:42;38.70;;;19.13;;
71366;SDS011;60030;52.274;8.040;2023-02-18T04:05:09;37.73;;;19.13;;
71366;SDS011;60030;52.274;8.040;2023-02-18T04:07:37;35.93;;;18.60;;
71366;SDS011;60030;52.274;8.040;2023-02-18T04:10:04;31.10;;;17.83;;
71366;SDS011;60030;52.274;8.040;2023-02-18T04:12:34;35.43;;;18.20;;
71366;SDS011;60030;52.274;8.040;2023-02-18T04:15:01;37.63;;;18.97;;
71366;SDS011;60030;52.274;8.040;2023-02-18T04:17:28;35.00;;;18.50;;
71366;SDS011;60030;52.274;8.040;2023-02-18T04:19:55;33.20;;;16.73;;
71366;SDS011;60030;52.274;8.040;2023-02-18T04:22:22;35.63;;;18.70;;
71366;SDS011;60030;52.274;8.040;2023-02-18T04:24:49;34.30;;;17.33;;
71366;SDS011;60030;52.274;8.040;2023-02-18T04:27:16;31.03;;;16.83;;
71366;SDS011;60030;52.274;8.040;2023-02-18T04:29:45;34.13;;;18.30;;
71366;SDS011;60030;52.274;8.040;2023-02-18T04:32:12;36.13;;;17.70;;
71366;SDS011;60030;52.274;8.040;2023-02-18T04:34:39;35.70;;;17.03;;
71366;SDS011;60030;52.274;8.040;2023-02-18T04:37:06;32.50;;;17.13;;
71366;SDS011;60030;52.274;8.040;2023-02-18T04:39:33;36.37;;;16.97;;
71366;SDS011;60030;52.274;8.040;2023-02-18T04:42:00;31.13;;;16.73;;
71366;SDS011;60030;52.274;8.040;2023-02-18T04:44:33;37.93;;;17.63;;
71366;SDS011;60030;52.274;8.040;2023-02-18T04:47:01;36.77;;;17.43;;
71366;SDS011;60030;52.274;8.040;2023-02-18T04:49:28;30.67;;;15.87;;
71366;SDS011;60030;52.274;8.040;2023-02-18T04:51:55;37.97;;;16.37;;
71366;SDS011;60030;52.274;8.040;2023-02-18T04:54:22;30.90;;;15.83;;
71366;SDS011;60030;52.274;8.040;2023-02-18T04:56:49;30.97;;;15.90;;
71366;SDS011;60030;52.274;8.040;2023-02-18T04:59:17;29.53;;;14.50;;
71366;SDS011;60030;52.274;8.040;2023-02-18T05:01:44;27.20;;;14.13;;
71366;SDS011;60030;52.274;8.040;2023-02-18T05:04:12;29.97;;;15.27;;
71366;SDS011;60030;52.274;8.040;2023-02-18T05:06:39;30.03;;;15.60;;
71366;SDS011;60030;52.274;8.040;2023-02-18T05:09:07;26.10;;;12.60;;
71366;SDS011;60030;52.274;8.040;2023-02-18T05:11:34;25.80;;;13.33;;
71366;SDS011;60030;52.274;8.040;2023-02-18T05:14:02;27.03;;;13.23;;
71366;SDS011;60030;52.274;8.040;2023-02-18T05:16:29;22.30;;;11.73;;
71366;SDS011;60030;52.274;8.040;2023-02-18T05:18:57;21.60;;;11.33;;
71366;SDS011;60030;52.274;8.040;2023-02-18T05:21:25;19.33;;;11.80;;
71366;SDS011;60030;52.274;8.040;2023-02-18T05:23:52;20.37;;;11.17;;
71366;SDS011;60030;52.274;8.040;2023-02-18T05:26:19;19.67;;;10.87;;
71366;SDS011;60030;52.274;8.040;2023-02-18T05:28:46;20.80;;;10.80;;
71366;SDS011;60030;52.274;8.040;2023-02-18T05:31:13;17.47;;;9.47;;
71366;SDS011;60030;52.274;8.040;2023-02-18T05:33:40;18.17;;;9.77;;
71366;SDS011;60030;52.274;8.040;2023-02-18T05:36:07;15.10;;;8.40;;
71366;SDS011;60030;52.274;8.040;2023-02-18T05:38:36;14.23;;;8.23;;
71366;SDS011;60030;52.274;8.040;2023-02-18T05:41:03;11.20;;;7.17;;
71366;SDS011;60030;52.274;8.040;2023-02-18T05:43:30;11.73;;;7.33;;
71366;SDS011;60030;52.274;8.040;2023-02-18T05:46:18;9.27;;;5.77;;
71366;SDS011;60030;52.274;8.040;2023-02-18T05:48:45;9.87;;;5.43;;
71366;SDS011;60030;52.274;8.040;2023-02-18T05:51:13;9.10;;;5.50;;
71366;SDS011;60030;52.274;8.040;2023-02-18T05:53:41;9.43;;;5.33;;
71366;SDS011;60030;52.274;8.040;2023-02-18T05:56:08;9.07;;;5.67;;
71366;SDS011;60030;52.274;8.040;2023-02-18T05:58:35;9.10;;;5.30;;
71366;SDS011;60030;52.274;8.040;2023-02-18T06:01:03;9.87;;;4.80;;
71366;SDS011;60030;52.274;8.040;2023-02-18T06:03:31;8.53;;;4.60;;
71366;SDS011;60030;52.274;8.040;2023-02-18T06:05:59;7.63;;;4.67;;
71366;SDS011;60030;52.274;8.040;2023-02-18T06:08:26;8.07;;;4.60;;
71366;SDS011;60030;52.274;8.040;2023-02-18T06:10:54;8.33;;;4.57;;
71366;SDS011;60030;52.274;8.040;2023-02-18T06:13:21;9.17;;;4.67;;
71366;SDS011;60030;52.274;8.040;2023-02-18T06:15:49;7.43;;;4.37;;
71366;SDS011;60030;52.274;8.040;2023-02-18T06:18:16;6.53;;;4.00;;
71366;SDS011;60030;52.274;8.040;2023-02-18T06:20:45;6.83;;;4.50;;
71366;SDS011;60030;52.274;8.040;2023-02-18T06:23:12;8.03;;;4.83;;
71366;SDS011;60030;52.274;8.040;2023-02-18T06:25:40;6.60;;;4.00;;
71366;SDS011;60030;52.274;8.040;2023-02-18T06:28:08;6.60;;;4.20;;
71366;SDS011;60030;52.274;8.040;2023-02-18T06:30:36;6.73;;;4.17;;
71366;SDS011;60030;52.274;8.040;2023-02-18T06:33:03;6.90;;;4.27;;
71366;SDS011;60030;52.274;8.040;2023-02-18T06:35:30;5.77;;;3.80;;
71366;SDS011;60030;52.274;8.040;2023-02-18T06:37:57;5.10;;;3.43;;
71366;SDS011;60030;52.274;8.040;2023-02-18T06:40:24;5.27;;;3.20;;
71366;SDS011;60030;52.274;8.040;2023-02-18T06:42:51;6.20;;;2.70;;
71366;SDS011;60030;52.274;8.040;2023-02-18T06:45:19;5.33;;;3.23;;
71366;SDS011;60030;52.274;8.040;2023-02-18T06:47:47;5.47;;;3.40;;
71366;SDS011;60030;52.274;8.040;2023-02-18T06:50:14;4.93;;;3.30;;
71366;SDS011;60030;52.274;8.040;2023-02-18T06:52:41;5.77;;;3.20;;
71366;SDS011;60030;52.274;8.040;2023-02-18T06:55:08;3.47;;;2.67;;
71366;SDS011;60030;52.274;8.040;2023-02-18T06:57:36;4.63;;;3.00;;
71366;SDS011;60030;52.274;8.040;2023-02-18T07:00:03;4.43;;;2.87;;
71366;SDS011;60030;52.274;8.040;2023-02-18T07:02:32;4.13;;;2.57;;
71366;SDS011;60030;52.274;8.040;2023-02-18T07:04:59;3.93;;;2.30;;
71366;SDS011;60030;52.274;8.040;2023-02-18T07:07:27;3.60;;;2.10;;
71366;SDS011;60030;52.274;8.040;2023-02-18T07:09:54;4.03;;;2.20;;
71366;SDS011;60030;52.274;8.040;2023-02-18T07:12:21;2.60;;;1.60;;
71366;SDS011;60030;52.274;8.040;2023-02-18T07:14:48;3.17;;;1.93;;
71366;SDS011;60030;52.274;8.040;2023-02-18T07:17:15;4.83;;;2.83;;
71366;SDS011;60030;52.274;8.040;2023-02-18T07:19:44;3.23;;;1.93;;
71366;SDS011;60030;52.274;8.040;2023-02-18T07:22:11;3.33;;;2.00;;
71366;SDS011;60030;52.274;8.040;2023-02-18T07:24:38;2.23;;;1.57;;
71366;SDS011;60030;52.274;8.040;2023-02-18T07:27:05;2.83;;;1.80;;
71366;SDS011;60030;52.274;8.040;2023-02-18T07:29:32;2.70;;;1.80;;
71366;SDS011;60030;52.274;8.040;2023-02-18T07:31:59;2.20;;;1.40;;
71366;SDS011;60030;52.274;8.040;2023-02-18T07:34:26;2.27;;;1.50;;
71366;SDS011;60030;52.274;8.040;2023-02-18T07:36:55;3.30;;;1.40;;
71366;SDS011;60030;52.274;8.040;2023-02-18T07:39:22;1.87;;;1.40;;
71366;SDS011;60030;52.274;8.040;2023-02-18T07:41:49;2.27;;;1.27;;
71366;SDS011;60030;52.274;8.040;2023-02-18T07:44:16;1.60;;;1.10;;
71366;SDS011;60030;52.274;8.040;2023-02-18T07:46:43;2.13;;;1.07;;
71366;SDS011;60030;52.274;8.040;2023-02-18T07:49:10;1.67;;;1.10;;
71366;SDS011;60030;52.274;8.040;2023-02-18T07:51:37;1.73;;;1.27;;
71366;SDS011;60030;52.274;8.040;2023-02-18T07:54:06;1.60;;;1.10;;
71366;SDS011;60030;52.274;8.040;2023-02-18T07:56:33;1.70;;;1.30;;
71366;SDS011;60030;52.274;8.040;2023-02-18T07:59:00;1.73;;;1.27;;
71366;SDS011;60030;52.274;8.040;2023-02-18T08:01:27;2.17;;;1.17;;
71366;SDS011;60030;52.274;8.040;2023-02-18T08:03:54;1.83;;;1.20;;
71366;SDS011;60030;52.274;8.040;2023-02-18T08:06:24;1.47;;;1.10;;
71366;SDS011;60030;52.274;8.040;2023-02-18T08:08:53;1.23;;;0.83;;
71366;SDS011;60030;52.274;8.040;2023-02-18T08:11:21;1.30;;;0.90;;
71366;SDS011;60030;52.274;8.040;2023-02-18T08:13:49;0.93;;;0.80;;
71366;SDS011;60030;52.274;8.040;2023-02-18T08:16:16;1.00;;;0.87;;
71366;SDS011;60030;52.274;8.040;2023-02-18T08:18:44;1.07;;;0.70;;
71366;SDS011;60030;52.274;8.040;2023-02-18T08:21:12;1.27;;;0.70;;
71366;SDS011;60030;52.274;8.040;2023-02-18T08:23:39;1.17;;;1.07;;
71366;SDS011;60030;52.274;8.040;2023-02-18T08:26:06;1.40;;;0.83;;
71366;SDS011;60030;52.274;8.040;2023-02-18T08:28:41;1.03;;;0.93;;
71366;SDS011;60030;52.274;8.040;2023-02-18T08:31:14;1.13;;;0.90;;
71366;SDS011;60030;52.274;8.040;2023-02-18T08:33:43;3.07;;;0.90;;
71366;SDS011;60030;52.274;8.040;2023-02-18T08:36:10;1.83;;;1.10;;
71366;SDS011;60030;52.274;8.040;2023-02-18T08:38:37;1.10;;;0.90;;
71366;SDS011;60030;52.274;8.040;2023-02-18T08:41:05;1.30;;;1.00;;
71366;SDS011;60030;52.274;8.040;2023-02-18T08:43:33;1.20;;;0.93;;
71366;SDS011;60030;52.274;8.040;2023-02-18T08:46:02;2.03;;;1.30;;
71366;SDS011;60030;52.274;8.040;2023-02-18T08:48:30;2.00;;;1.37;;
71366;SDS011;60030;52.274;8.040;2023-02-18T08:50:58;1.77;;;1.30;;
71366;SDS011;60030;52.274;8.040;2023-02-18T08:53:26;2.23;;;1.00;;
71366;SDS011;60030;52.274;8.040;2023-02-18T08:55:53;1.23;;;0.93;;
71366;SDS011;60030;52.274;8.040;2023-02-18T08:58:20;1.10;;;0.90;;
71366;SDS011;60030;52.274;8.040;2023-02-18T09:00:47;1.63;;;1.07;;
71366;SDS011;60030;52.274;8.040;2023-02-18T09:03:15;1.87;;;1.00;;
71366;SDS011;60030;52.274;8.040;2023-02-18T09:05:42;1.07;;;0.70;;
71366;SDS011;60030;52.274;8.040;2023-02-18T09:08:09;1.00;;;0.70;;
71366;SDS011;60030;52.274;8.040;2023-02-18T09:10:36;1.00;;;0.80;;
71366;SDS011;60030;52.274;8.040;2023-02-18T09:13:04;0.97;;;0.80;;
71366;SDS011;60030;52.274;8.040;2023-02-18T09:15:31;1.40;;;0.90;;
71366;SDS011;60030;52.274;8.040;2023-02-18T09:17:58;1.10;;;1.00;;
71366;SDS011;60030;52.274;8.040;2023-02-18T09:20:26;1.90;;;0.90;;
71366;SDS011;60030;52.274;8.040;2023-02-18T09:22:54;1.00;;;0.90;;
71366;SDS011;60030;52.274;8.040;2023-02-18T09:25:22;1.27;;;1.00;;
71366;SDS011;60030;52.274;8.040;2023-02-18T09:27:49;0.67;;;0.60;;
71366;SDS011;60030;52.274;8.040;2023-02-18T09:30:16;1.40;;;1.13;;
71366;SDS011;60030;52.274;8.040;2023-02-18T09:32:43;1.27;;;1.00;;
71366;SDS011;60030;52.274;8.040;2023-02-18T09:35:10;2.00;;;1.27;;
71366;SDS011;60030;52.274;8.040;2023-02-18T09:37:39;2.53;;;1.20;;
71366;SDS011;60030;52.274;8.040;2023-02-18T09:40:06;1.73;;;1.17;;
71366;SDS011;60030;52.274;8.040;2023-02-18T09:42:35;1.67;;;1.13;;
71366;SDS011;60030;52.274;8.040;2023-02-18T09:45:03;1.70;;;1.30;;
71366;SDS011;60030;52.274;8.040;2023-02-18T09:47:33;1.70;;;1.23;;
71366;SDS011;60030;52.274;8.040;2023-02-18T09:50:04;1.63;;;1.20;;
71366;SDS011;60030;52.274;8.040;2023-02-18T09:52:34;1.90;;;1.60;;
71366;SDS011;60030;52.274;8.040;2023-02-18T09:55:14;2.00;;;1.30;;
71366;SDS011;60030;52.274;8.040;2023-02-18T09:57:45;1.83;;;1.37;;
71366;SDS011;60030;52.274;8.040;2023-02-18T10:00:16;1.67;;;1.30;;
71366;SDS011;60030;52.274;8.040;2023-02-18T10:02:49;3.50;;;1.70;;
71366;SDS011;60030;52.274;8.040;2023-02-18T10:05:21;2.10;;;1.80;;
71366;SDS011;60030;52.274;8.040;2023-02-18T10:07:50;1.73;;;1.60;;
71366;SDS011;60030;52.274;8.040;2023-02-18T10:10:31;2.07;;;1.73;;
71366;SDS011;60030;52.274;8.040;2023-02-18T10:13:03;3.40;;;1.90;;
71366;SDS011;60030;52.274;8.040;2023-02-18T10:15:36;2.43;;;1.90;;
71366;SDS011;60030;52.274;8.040;2023-02-18T10:18:04;3.33;;;2.00;;
71366;SDS011;60030;52.274;8.040;2023-02-18T10:20:38;2.93;;;2.60;;
71366;SDS011;60030;52.274;8.040;2023-02-18T10:23:05;7.13;;;2.47;;
71366;SDS011;60030;52.274;8.040;2023-02-18T10:25:33;4.10;;;2.57;;
71366;SDS011;60030;52.274;8.040;2023-02-18T10:28:07;4.20;;;2.73;;
71366;SDS011;60030;52.274;8.040;2023-02-18T10:30:36;5.63;;;3.00;;
71366;SDS011;60030;52.274;8.040;2023-02-18T10:33:11;3.83;;;2.17;;
71366;SDS011;60030;52.274;8.040;2023-02-18T10:35:52;3.83;;;2.63;;
71366;SDS011;60030;52.274;8.040;2023-02-18T10:38:25;7.23;;;2.90;;
71366;SDS011;60030;52.274;8.040;2023-02-18T10:41:07;6.23;;;2.83;;
71366;SDS011;60030;52.274;8.040;2023-02-18T10:43:41;5.03;;;2.50;;
71366;SDS011;60030;52.274;8.040;2023-02-18T10:46:19;4.83;;;2.70;;
71366;SDS011;60030;52.274;8.040;2023-02-18T10:48:59;4.03;;;2.93;;
71366;SDS011;60030;52.274;8.040;2023-02-18T10:51:35;3.70;;;2.40;;
71366;SDS011;60030;52.274;8.040;2023-02-18T10:54:05;4.77;;;2.33;;
71366;SDS011;60030;52.274;8.040;2023-02-18T10:56:36;2.40;;;2.10;;
71366;SDS011;60030;52.274;8.040;2023-02-18T10:59:09;2.87;;;2.10;;
71366;SDS011;60030;52.274;8.040;2023-02-18T11:01:37;4.53;;;2.60;;
71366;SDS011;60030;52.274;8.040;2023-02-18T11:04:09;4.03;;;2.30;;
71366;SDS011;60030;52.274;8.040;2023-02-18T11:06:39;4.60;;;2.57;;
71366;SDS011;60030;52.274;8.040;2023-02-18T11:09:27;5.40;;;2.57;;
71366;SDS011;60030;52.274;8.040;2023-02-18T11:12:02;2.67;;;2.20;;
71366;SDS011;60030;52.274;8.040;2023-02-18T11:14:36;3.47;;;2.33;;
71366;SDS011;60030;52.274;8.040;2023-02-18T11:17:11;2.63;;;2.20;;
71366;SDS011;60030;52.274;8.040;2023-02-18T11:19:51;3.53;;;2.13;;
71366;SDS011;60030;52.274;8.040;2023-02-18T11:22:21;3.87;;;2.20;;
71366;SDS011;60030;52.274;8.040;2023-02-18T11:24:53;3.00;;;2.00;;
71366;SDS011;60030;52.274;8.040;2023-02-18T11:27:25;2.60;;;1.60;;
71366;SDS011;60030;52.274;8.040;2023-02-18T11:29:58;5.00;;;1.83;;
71366;SDS011;60030;52.274;8.040;2023-02-18T11:32:27;3.20;;;1.80;;
71366;SDS011;60030;52.274;8.040;2023-02-18T11:34:56;2.40;;;1.30;;
71366;SDS011;60030;52.274;8.040;2023-02-18T11:37:23;2.17;;;1.30;;
71366;SDS011;60030;52.274;8.040;2023-02-18T11:39:52;2.07;;;1.43;;
71366;SDS011;60030;52.274;8.040;2023-02-18T11:42:22;1.87;;;1.37;;
71366;SDS011;60030;52.274;8.040;2023-02-18T11:44:52;1.87;;;1.43;;
71366;SDS011;60030;52.274;8.040;2023-02-18T11:47:23;1.20;;;1.10;;
71366;SDS011;60030;52.274;8.040;2023-02-18T11:49:58;1.87;;;1.40;;
71366;SDS011;60030;52.274;8.040;2023-02-18T11:52:41;1.53;;;1.30;;
71366;SDS011;60030;52.274;8.040;2023-02-18T11:55:13;1.67;;;1.17;;
71366;SDS011;60030;52.274;8.040;2023-02-18T11:57:44;1.90;;;1.50;;
71366;SDS011;60030;52.274;8.040;2023-02-18T12:00:18;1.40;;;1.20;;
71366;SDS011;60030;52.274;8.040;2023-02-18T12:02:48;1.73;;;1.03;;
71366;SDS011;60030;52.274;8.040;2023-02-18T12:05:17;2.27;;;1.10;;
71366;SDS011;60030;52.274;8.040;2023-02-18T12:07:49;1.63;;;1.40;;
71366;SDS011;60030;52.274;8.040;2023-02-18T12:10:22;2.30;;;1.60;;
71366;SDS011;60030;52.274;8.040;2023-02-18T12:12:55;3.97;;;1.40;;
71366;SDS011;60030;52.274;8.040;2023-02-18T12:15:33;2.33;;;1.30;;
71366;SDS011;60030;52.274;8.040;2023-02-18T12:18:11;2.13;;;1.50;;
71366;SDS011;60030;52.274;8.040;2023-02-18T12:20:53;3.83;;;1.70;;
71366;SDS011;60030;52.274;8.040;2023-02-18T12:23:30;3.80;;;2.00;;
71366;SDS011;60030;52.274;8.040;2023-02-18T12:26:05;3.10;;;2.10;;
71366;SDS011;60030;52.274;8.040;2023-02-18T12:28:51;4.93;;;1.80;;
71366;SDS011;60030;52.274;8.040;2023-02-18T12:31:39;3.00;;;2.00;;
71366;SDS011;60030;52.274;8.040;2023-02-18T12:34:28;4.60;;;2.33;;
71366;SDS011;60030;52.274;8.040;2023-02-18T12:37:07;4.97;;;2.27;;
71366;SDS011;60030;52.274;8.040;2023-02-18T12:39:53;3.13;;;2.63;;
71366;SDS011;60030;52.274;8.040;2023-02-18T12:42:39;3.17;;;2.17;;
71366;SDS011;60030;52.274;8.040;2023-02-18T12:45:28;4.37;;;2.30;;
71366;SDS011;60030;52.274;8.040;2023-02-18T12:48:12;6.40;;;2.47;;
71366;SDS011;60030;52.274;8.040;2023-02-18T12:50:59;3.43;;;2.60;;
71366;SDS011;60030;52.274;8.040;2023-02-18T12:53:54;4.07;;;2.40;;
71366;SDS011;60030;52.274;8.040;2023-02-18T12:56:40;4.57;;;2.40;;
71366;SDS011;60030;52.274;8.040;2023-02-18T12:59:33;6.50;;;2.70;;
71366;SDS011;60030;52.274;8.040;2023-02-18T13:02:20;6.33;;;2.40;;
71366;SDS011;60030;52.274;8.040;2023-02-18T13:05:05;2.93;;;2.30;;
71366;SDS011;60030;52.274;8.040;2023-02-18T13:07:43;4.10;;;2.60;;
71366;SDS011;60030;52.274;8.040;2023-02-18T13:10:23;4.93;;;2.73;;
71366;SDS011;60030;52.274;8.040;2023-02-18T13:13:09;4.37;;;2.80;;
71366;SDS011;60030;52.274;8.040;2023-02-18T13:15:39;6.93;;;2.83;;
71366;SDS011;60030;52.274;8.040;2023-02-18T13:18:11;5.80;;;2.83;;
71366;SDS011;60030;52.274;8.040;2023-02-18T13:20:41;7.23;;;3.03;;
71366;SDS011;60030;52.274;8.040;2023-02-18T13:23:14;5.37;;;2.77;;
71366;SDS011;60030;52.274;8.040;2023-02-18T13:25:44;4.50;;;3.00;;
71366;SDS011;60030;52.274;8.040;2023-02-18T13:28:14;5.83;;;2.87;;
71366;SDS011;60030;52.274;8.040;2023-02-18T13:30:49;7.83;;;2.93;;
71366;SDS011;60030;52.274;8.040;2023-02-18T13:33:27;8.63;;;2.93;;
71366;SDS011;60030;52.274;8.040;2023-02-18T13:36:04;9.50;;;3.30;;
71366;SDS011;60030;52.274;8.040;2023-02-18T13:38:48;5.53;;;3.30;;
71366;SDS011;60030;52.274;8.040;2023-02-18T13:41:19;6.57;;;2.80;;
71366;SDS011;60030;52.274;8.040;2023-02-18T13:43:47;4.37;;;3.17;;
71366;SDS011;60030;52.274;8.040;2023-02-18T13:46:15;7.13;;;3.03;;
71366;SDS011;60030;52.274;8.040;2023-02-18T13:48:46;6.67;;;3.03;;
71366;SDS011;60030;52.274;8.040;2023-02-18T13:51:15;7.67;;;3.60;;
71366;SDS011;60030;52.274;8.040;2023-02-18T13:53:55;12.00;;;3.47;;
71366;SDS011;60030;52.274;8.040;2023-02-18T13:56:26;10.93;;;3.70;;
71366;SDS011;60030;52.274;8.040;2023-02-18T13:58:58;8.23;;;3.63;;
71366;SDS011;60030;52.274;8.040;2023-02-18T14:01:37;11.30;;;3.57;;
71366;SDS011;60030;52.274;8.040;2023-02-18T14:10:03;11.17;;;3.27;;
71366;SDS011;60030;52.274;8.040;2023-02-18T14:12:37;8.27;;;3.47;;
71366;SDS011;60030;52.274;8.040;2023-02-18T14:15:40;7.77;;;3.77;;
71366;SDS011;60030;52.274;8.040;2023-02-18T14:18:23;6.20;;;3.10;;
71366;SDS011;60030;52.274;8.040;2023-02-18T14:20:57;8.27;;;3.63;;
71366;SDS011;60030;52.274;8.040;2023-02-18T14:23:54;8.77;;;3.90;;
71366;SDS011;60030;52.274;8.040;2023-02-18T14:26:33;7.37;;;3.23;;
71366;SDS011;60030;52.274;8.040;2023-02-18T14:29:07;7.03;;;3.70;;
71366;SDS011;60030;52.274;8.040;2023-02-18T14:31:40;10.77;;;3.37;;
71366;SDS011;60030;52.274;8.040;2023-02-18T14:34:18;8.67;;;3.20;;
71366;SDS011;60030;52.274;8.040;2023-02-18T14:37:12;7.07;;;3.07;;
71366;SDS011;60030;52.274;8.040;2023-02-18T14:39:55;8.37;;;3.20;;
71366;SDS011;60030;52.274;8.040;2023-02-18T14:42:33;7.93;;;3.33;;
71366;SDS011;60030;52.274;8.040;2023-02-18T14:45:10;9.07;;;3.10;;
71366;SDS011;60030;52.274;8.040;2023-02-18T14:47:50;5.70;;;3.30;;
71366;SDS011;60030;52.274;8.040;2023-02-18T14:50:36;6.97;;;3.30;;
71366;SDS011;60030;52.274;8.040;2023-02-18T14:53:10;8.63;;;3.60;;
71366;SDS011;60030;52.274;8.040;2023-02-18T14:55:43;12.93;;;3.57;;
71366;SDS011;60030;52.274;8.040;2023-02-18T14:58:15;6.73;;;3.23;;
71366;SDS011;60030;52.274;8.040;2023-02-18T15:00:51;9.07;;;2.90;;
71366;SDS011;60030;52.274;8.040;2023-02-18T15:03:19;6.87;;;3.30;;
71366;SDS011;60030;52.274;8.040;2023-02-18T15:05:47;6.63;;;3.50;;
71366;SDS011;60030;52.274;8.040;2023-02-18T15:08:17;6.80;;;2.70;;
71366;SDS011;60030;52.274;8.040;2023-02-18T15:10:47;8.43;;;3.43;;
71366;SDS011;60030;52.274;8.040;2023-02-18T15:13:18;6.77;;;3.00;;